Time;durP1;ratioP1;P1;durP2;ratioP2;P2;SDS_P1;SDS_P2;PMS_P1;PMS_P2;Temp;Humidity;BMP_temperature;BMP_pressure;BME280_temperature;BME280_humidity;BME280_pressure;Samples;Min_cycle;Max_cycle;Signal;HPM_P1;HPM_P2
2021/07/02 00:02:02;;;;;;;4.70;2.80;;;19.50;72.50;;;;;;5091606;28;20020;-80
2021/07/02 00:04:28;;;;;;;8.60;4.45;;;19.50;72.40;;;;;;5090959;28;20122;-78
2021/07/02 00:06:53;;;;;;;3.67;3.08;;;19.50;71.40;;;;;;5091216;28;20107;-78
2021/07/02 00:09:19;;;;;;;7.22;3.60;;;19.40;71.00;;;;;;5079466;28;20027;-81
2021/07/02 00:11:45;;;;;;;4.35;3.20;;;19.40;70.90;;;;;;5093245;28;20110;-80
2021/07/02 00:14:11;;;;;;;5.38;3.13;;;19.40;71.10;;;;;;5083178;28;20496;-80
2021/07/02 00:16:37;;;;;;;3.28;2.65;;;19.40;71.40;;;;;;5073043;28;20036;-81
2021/07/02 00:19:03;;;;;;;9.05;2.83;;;19.40;71.70;;;;;;5072541;28;20017;-78
2021/07/02 00:21:29;;;;;;;3.40;2.42;;;19.40;71.50;;;;;;5071958;28;20028;-78
2021/07/02 00:23:54;;;;;;;4.43;2.80;;;19.40;71.70;;;;;;5088144;28;20070;-81
2021/07/02 00:26:20;;;;;;;3.50;2.83;;;19.40;70.80;;;;;;5090727;28;20036;-77
2021/07/02 00:28:46;;;;;;;4.95;3.28;;;19.40;70.40;;;;;;5092423;28;20020;-79
2021/07/02 00:31:12;;;;;;;3.80;3.05;;;19.40;70.90;;;;;;5091099;28;20053;-78
2021/07/02 00:33:38;;;;;;;5.03;3.45;;;19.40;70.80;;;;;;5077937;28;20393;-79
2021/07/02 00:36:04;;;;;;;4.90;3.38;;;19.40;70.40;;;;;;5092278;28;20027;-79
2021/07/02 00:38:30;;;;;;;5.18;4.15;;;19.40;70.40;;;;;;5093572;28;20031;-80
2021/07/02 00:40:56;;;;;;;5.25;3.50;;;19.40;69.60;;;;;;5090841;28;20047;-81
2021/07/02 00:43:22;;;;;;;7.38;3.92;;;19.40;69.80;;;;;;5090576;28;20024;-81
2021/07/02 00:45:48;;;;;;;7.97;3.72;;;19.40;69.60;;;;;;5092072;28;20024;-81
2021/07/02 00:48:14;;;;;;;6.03;3.70;;;19.40;69.60;;;;;;5090705;28;20027;-79
2021/07/02 00:50:42;;;;;;;11.48;3.97;;;19.30;69.40;;;;;;5093240;28;20048;-80
2021/07/02 00:53:08;;;;;;;4.80;3.67;;;19.40;69.60;;;;;;5084681;28;20366;-81
2021/07/02 00:55:33;;;;;;;6.32;3.30;;;19.30;69.20;;;;;;5074160;28;20029;-77
2021/07/02 00:57:59;;;;;;;7.25;4.68;;;19.30;69.70;;;;;;5074493;28;20070;-80
2021/07/02 01:00:25;;;;;;;9.93;4.50;;;19.30;69.00;;;;;;5075672;28;20478;-80
2021/07/02 01:02:51;;;;;;;7.15;4.22;;;19.30;68.70;;;;;;5074840;28;20029;-84
2021/07/02 01:05:17;;;;;;;7.13;4.47;;;19.20;68.60;;;;;;5074378;28;20021;-80
2021/07/02 01:07:43;;;;;;;5.18;4.30;;;19.30;69.10;;;;;;5075415;28;20029;-79
2021/07/02 01:10:11;;;;;;;4.30;3.70;;;19.30;69.10;;;;;;5075552;28;20080;-86
2021/07/02 01:12:37;;;;;;;5.05;3.67;;;19.20;69.00;;;;;;5074081;28;20234;-80
2021/07/02 01:15:04;;;;;;;7.55;4.43;;;19.20;69.30;;;;;;5088527;28;20025;-83
2021/07/02 01:17:30;;;;;;;7.10;4.35;;;19.30;68.90;;;;;;5094265;28;20032;-81
2021/07/02 01:19:58;;;;;;;6.15;4.13;;;19.20;69.60;;;;;;5095508;28;20383;-85
2021/07/02 01:22:26;;;;;;;5.88;4.40;;;19.20;69.20;;;;;;5087326;28;20111;-79
2021/07/02 01:24:56;;;;;;;5.93;4.40;;;19.20;68.90;;;;;;5095148;28;20056;-79
2021/07/02 01:27:23;;;;;;;7.85;4.75;;;19.20;69.50;;;;;;5095323;28;20028;-83
2021/07/02 01:29:49;;;;;;;7.30;4.57;;;19.20;68.70;;;;;;5094398;28;20026;-84
2021/07/02 01:32:16;;;;;;;5.63;3.95;;;19.20;68.60;;;;;;5094077;28;20077;-78
2021/07/02 01:34:43;;;;;;;6.43;3.95;;;19.20;68.90;;;;;;5095338;28;20024;-81
2021/07/02 01:37:09;;;;;;;5.05;3.10;;;19.10;69.60;;;;;;5090604;28;20030;-80
2021/07/02 01:39:37;;;;;;;5.32;3.83;;;19.20;70.40;;;;;;5075211;28;20024;-81
2021/07/02 01:42:07;;;;;;;4.40;3.38;;;19.20;70.30;;;;;;5091152;28;20107;-79
2021/07/02 01:44:34;;;;;;;4.28;3.28;;;19.30;70.60;;;;;;5073997;28;20039;-79
2021/07/02 01:47:00;;;;;;;4.63;3.30;;;19.30;70.90;;;;;;5092370;28;20060;-82
2021/07/02 01:49:26;;;;;;;5.13;3.50;;;19.30;71.00;;;;;;5086587;28;20059;-77
2021/07/02 01:51:52;;;;;;;4.85;3.83;;;19.30;71.20;;;;;;5075738;28;20121;-80
2021/07/02 01:54:17;;;;;;;3.70;3.30;;;19.30;70.80;;;;;;5093567;28;20367;-82
2021/07/02 01:56:48;;;;;;;5.90;3.88;;;19.30;71.40;;;;;;5079739;28;20412;-79
2021/07/02 01:59:22;;;;;;;5.72;3.75;;;19.40;71.60;;;;;;5074657;28;20470;-77
2021/07/02 02:01:49;;;;;;;7.82;3.65;;;19.40;71.40;;;;;;5073993;28;20107;-79
2021/07/02 02:04:15;;;;;;;10.30;4.63;;;19.40;71.40;;;;;;5073509;28;20070;-78
2021/07/02 02:06:41;;;;;;;5.35;4.07;;;19.40;71.50;;;;;;5074443;28;20363;-80
2021/07/02 02:09:07;;;;;;;5.78;3.88;;;19.40;71.30;;;;;;5074974;28;20039;-82
2021/07/02 02:11:33;;;;;;;6.88;3.78;;;19.40;71.30;;;;;;5074916;28;20051;-79
2021/07/02 02:14:00;;;;;;;9.73;4.63;;;19.40;71.30;;;;;;5074241;28;20027;-85
2021/07/02 02:16:26;;;;;;;6.40;4.22;;;19.40;70.90;;;;;;5074782;28;20125;-79
2021/07/02 02:18:52;;;;;;;6.30;4.55;;;19.40;70.80;;;;;;5074478;28;20099;-80
2021/07/02 02:21:19;;;;;;;6.40;4.35;;;19.40;70.70;;;;;;5094058;28;20028;-83
2021/07/02 02:23:44;;;;;;;6.18;4.22;;;19.40;71.70;;;;;;5090086;28;20036;-84
2021/07/02 02:26:10;;;;;;;6.75;4.40;;;19.40;69.90;;;;;;5073857;28;20385;-81
2021/07/02 02:28:36;;;;;;;6.90;4.43;;;19.40;70.20;;;;;;5075095;28;20025;-77
2021/07/02 02:31:03;;;;;;;6.88;4.18;;;19.30;70.50;;;;;;5074886;28;20035;-78
2021/07/02 02:33:28;;;;;;;7.03;4.97;;;19.30;70.60;;;;;;5074920;28;20078;-79
2021/07/02 02:35:54;;;;;;;6.30;4.78;;;19.30;70.60;;;;;;5075063;28;20100;-79
2021/07/02 02:38:20;;;;;;;11.02;4.93;;;19.30;70.50;;;;;;5074616;28;20059;-78
2021/07/02 02:40:45;;;;;;;6.32;4.18;;;19.30;70.50;;;;;;5073513;28;20044;-78
2021/07/02 02:43:11;;;;;;;6.00;4.90;;;19.30;70.80;;;;;;5073822;28;20529;-81
2021/07/02 02:45:37;;;;;;;5.78;4.28;;;19.30;70.60;;;;;;5074937;28;20117;-78
2021/07/02 02:48:03;;;;;;;7.05;4.75;;;19.30;70.70;;;;;;5074623;28;20151;-79
2021/07/02 02:50:29;;;;;;;6.75;4.80;;;19.30;70.80;;;;;;5074276;28;20044;-79
2021/07/02 02:52:55;;;;;;;7.38;4.45;;;19.30;70.80;;;;;;5074381;28;20040;-75
2021/07/02 02:55:21;;;;;;;6.30;4.10;;;19.30;71.10;;;;;;5073400;28;20016;-77
2021/07/02 02:57:47;;;;;;;6.30;4.57;;;19.30;71.20;;;;;;5073304;28;20060;-81
2021/07/02 03:00:13;;;;;;;6.45;4.60;;;19.30;71.40;;;;;;5074354;28;20024;-79
2021/07/02 03:02:39;;;;;;;5.93;4.45;;;19.30;71.30;;;;;;5074370;28;20063;-79
2021/07/02 03:05:06;;;;;;;6.32;4.43;;;19.30;71.20;;;;;;5073114;28;20024;-79
2021/07/02 03:07:31;;;;;;;7.93;4.93;;;19.30;71.00;;;;;;5073182;28;20020;-76
2021/07/02 03:09:58;;;;;;;9.35;5.03;;;19.30;71.30;;;;;;5074424;28;20077;-81
2021/07/02 03:12:24;;;;;;;6.15;4.40;;;19.30;70.90;;;;;;5073973;28;20024;-80
2021/07/02 03:14:53;;;;;;;7.53;4.15;;;19.30;71.50;;;;;;5073916;28;20028;-79
2021/07/02 03:17:19;;;;;;;6.55;4.40;;;19.30;71.50;;;;;;5092847;28;20024;-78
2021/07/02 03:19:45;;;;;;;9.88;4.20;;;19.30;71.50;;;;;;5093856;28;20076;-79
2021/07/02 03:22:11;;;;;;;5.20;4.32;;;19.30;71.40;;;;;;5086616;28;20427;-81
2021/07/02 03:24:37;;;;;;;6.18;4.43;;;19.30;71.30;;;;;;5073017;28;20020;-78
2021/07/02 03:27:03;;;;;;;5.93;4.28;;;19.30;71.40;;;;;;5073624;28;20147;-81
2021/07/02 03:29:29;;;;;;;9.75;4.78;;;19.30;71.50;;;;;;5073545;28;20039;-75
2021/07/02 03:31:55;;;;;;;9.02;4.93;;;19.30;71.60;;;;;;5073430;28;20029;-78
2021/07/02 03:34:21;;;;;;;4.65;3.70;;;19.30;71.60;;;;;;5078820;28;20008;-78
2021/07/02 03:36:47;;;;;;;7.88;4.50;;;19.30;71.70;;;;;;5092873;28;20050;-82
2021/07/02 03:39:13;;;;;;;6.18;3.55;;;19.30;71.50;;;;;;5092975;28;20449;-78
2021/07/02 03:41:38;;;;;;;5.45;4.10;;;19.40;71.70;;;;;;5091554;28;20424;-77
2021/07/02 03:44:04;;;;;;;10.35;4.40;;;19.40;71.90;;;;;;5092650;28;20039;-76
2021/07/02 03:46:30;;;;;;;6.75;4.82;;;19.30;71.80;;;;;;5078368;28;20032;-78
2021/07/02 03:48:56;;;;;;;8.35;4.57;;;19.40;71.80;;;;;;5072404;28;20029;-76
2021/07/02 03:51:22;;;;;;;6.95;4.18;;;19.40;71.90;;;;;;5072134;28;20045;-76
2021/07/02 03:53:48;;;;;;;7.70;4.50;;;19.40;72.10;;;;;;5072346;28;20024;-77
2021/07/02 03:56:15;;;;;;;5.85;4.13;;;19.40;71.90;;;;;;5071017;28;20045;-81
2021/07/02 03:58:41;;;;;;;7.38;5.00;;;19.40;72.20;;;;;;5072229;28;20016;-78
2021/07/02 04:01:07;;;;;;;5.13;3.97;;;19.50;72.30;;;;;;5072173;28;20028;-76
2021/07/02 04:03:33;;;;;;;10.45;4.90;;;19.40;71.90;;;;;;5071100;28;20505;-78
2021/07/02 04:06:00;;;;;;;8.00;5.35;;;19.40;72.10;;;;;;5072138;28;20025;-76
2021/07/02 04:08:26;;;;;;;7.15;4.63;;;19.50;72.20;;;;;;5073042;28;20123;-77
2021/07/02 04:10:52;;;;;;;8.50;5.53;;;19.50;71.90;;;;;;5092207;28;20012;-75
2021/07/02 04:13:18;;;;;;;6.78;4.78;;;19.50;71.60;;;;;;5092167;28;20023;-77
2021/07/02 04:15:44;;;;;;;8.82;5.22;;;19.50;71.50;;;;;;5082963;28;20025;-75
2021/07/02 04:18:09;;;;;;;8.15;5.78;;;19.50;71.40;;;;;;5088573;28;20024;-80
2021/07/02 04:20:37;;;;;;;8.02;4.38;;;19.40;71.30;;;;;;5091982;28;20028;-74
2021/07/02 04:23:03;;;;;;;6.63;4.07;;;19.40;71.30;;;;;;5075936;28;20024;-78
2021/07/02 04:25:29;;;;;;;6.55;5.00;;;19.50;71.70;;;;;;5074257;28;20504;-75
2021/07/02 04:27:55;;;;;;;8.57;5.05;;;19.40;71.50;;;;;;5076169;28;20043;-76
2021/07/02 04:30:21;;;;;;;6.30;4.88;;;19.50;71.80;;;;;;5076072;28;20024;-78
2021/07/02 04:32:46;;;;;;;9.65;5.30;;;19.40;71.60;;;;;;5074584;28;20198;-74
2021/07/02 04:35:13;;;;;;;8.60;5.72;;;19.40;71.40;;;;;;5085633;28;20534;-76
2021/07/02 04:37:40;;;;;;;7.65;5.32;;;19.40;71.40;;;;;;5076148;28;20035;-78
2021/07/02 04:40:07;;;;;;;7.85;5.45;;;19.50;71.50;;;;;;5075681;28;20100;-79
2021/07/02 04:42:33;;;;;;;7.00;5.05;;;19.50;71.70;;;;;;5075636;28;20386;-76
2021/07/02 04:44:59;;;;;;;6.40;5.03;;;19.50;71.90;;;;;;5084624;28;20032;-76
2021/07/02 04:47:25;;;;;;;7.50;5.05;;;19.50;71.90;;;;;;5095782;28;20094;-75
2021/07/02 04:49:50;;;;;;;7.75;5.40;;;19.50;72.00;;;;;;5090144;28;20032;-77
2021/07/02 04:52:16;;;;;;;8.43;5.68;;;19.50;71.70;;;;;;5075151;28;20119;-74
2021/07/02 04:54:42;;;;;;;10.40;5.90;;;19.50;71.60;;;;;;5075392;28;20032;-74
2021/07/02 04:57:08;;;;;;;9.43;5.13;;;19.50;71.50;;;;;;5075423;28;20455;-77
2021/07/02 04:59:36;;;;;;;8.52;5.03;;;19.50;71.40;;;;;;5073944;28;20490;-77
2021/07/02 05:02:02;;;;;;;6.95;4.57;;;19.60;71.60;;;;;;5075435;28;20121;-77
2021/07/02 05:04:28;;;;;;;6.50;4.38;;;19.60;71.90;;;;;;5073933;28;20028;-78
2021/07/02 05:06:55;;;;;;;7.95;6.00;;;19.60;71.70;;;;;;5081401;28;20497;-76
2021/07/02 05:09:21;;;;;;;6.53;4.75;;;19.60;71.90;;;;;;5096476;28;20081;-77
2021/07/02 05:11:48;;;;;;;9.45;4.93;;;19.60;71.80;;;;;;5096268;28;20031;-76
2021/07/02 05:14:14;;;;;;;8.57;5.70;;;19.70;72.10;;;;;;5086165;28;20100;-76
2021/07/02 05:16:40;;;;;;;7.32;5.35;;;19.70;71.70;;;;;;5078102;28;20033;-76
2021/07/02 05:19:06;;;;;;;10.88;5.72;;;19.70;71.40;;;;;;5075775;28;20025;-78
2021/07/02 05:21:32;;;;;;;7.85;4.95;;;19.70;71.00;;;;;;5096140;28;20032;-76
2021/07/02 05:23:57;;;;;;;7.78;5.05;;;19.70;71.40;;;;;;5093077;28;20032;-75
2021/07/02 05:26:23;;;;;;;6.25;4.70;;;19.70;71.80;;;;;;5094577;28;20032;-76
2021/07/02 05:28:49;;;;;;;12.65;5.78;;;19.80;72.10;;;;;;5093445;28;20024;-75
2021/07/02 05:31:16;;;;;;;12.43;5.07;;;19.80;72.00;;;;;;5095517;28;20095;-78
2021/07/02 05:33:43;;;;;;;9.95;4.70;;;19.80;71.60;;;;;;5075388;28;20021;-75
2021/07/02 05:36:09;;;;;;;8.70;5.15;;;19.90;70.80;;;;;;5077511;28;20525;-76
2021/07/02 05:38:34;;;;;;;7.35;4.60;;;19.90;71.40;;;;;;5079544;28;20143;-78
2021/07/02 05:41:01;;;;;;;6.25;4.78;;;19.90;71.10;;;;;;5086778;28;20032;-78
2021/07/02 05:43:26;;;;;;;5.95;4.85;;;20.00;71.30;;;;;;5073739;28;20029;-75
2021/07/02 05:45:52;;;;;;;9.05;5.72;;;20.00;70.50;;;;;;5080584;28;20028;-76
2021/07/02 05:48:20;;;;;;;7.25;4.57;;;20.00;70.30;;;;;;5074039;28;20043;-76
2021/07/02 05:50:46;;;;;;;9.27;5.80;;;20.00;70.40;;;;;;5078637;28;20615;-79
2021/07/02 05:53:13;;;;;;;7.35;4.90;;;20.00;69.90;;;;;;5080821;28;20424;-77
2021/07/02 05:55:40;;;;;;;6.07;4.20;;;20.10;71.00;;;;;;5074056;28;20028;-78
2021/07/02 05:58:06;;;;;;;8.13;5.15;;;20.10;71.40;;;;;;5075292;28;20448;-76
2021/07/02 06:00:32;;;;;;;7.53;4.75;;;20.10;70.90;;;;;;5078462;28;20028;-78
2021/07/02 06:02:58;;;;;;;7.38;5.00;;;20.10;70.80;;;;;;5087874;28;20028;-75
2021/07/02 06:05:24;;;;;;;8.77;4.70;;;20.20;70.60;;;;;;5090623;28;20027;-78
2021/07/02 06:07:54;;;;;;;13.20;5.10;;;20.20;70.80;;;;;;5074916;28;20103;-75
2021/07/02 06:10:22;;;;;;;7.63;4.55;;;20.20;71.30;;;;;;5079710;28;20416;-78
2021/07/02 06:12:48;;;;;;;6.20;4.38;;;20.20;71.20;;;;;;5078321;28;20077;-77
2021/07/02 06:15:16;;;;;;;7.63;4.30;;;20.30;71.20;;;;;;5087053;28;20024;-77
2021/07/02 06:17:44;;;;;;;8.75;5.10;;;20.30;71.30;;;;;;5073164;28;20059;-79
2021/07/02 06:20:11;;;;;;;9.45;4.95;;;20.40;70.90;;;;;;5075530;28;20020;-74
2021/07/02 06:22:38;;;;;;;6.47;4.32;;;20.40;70.30;;;;;;5087334;28;20554;-76
2021/07/02 06:25:08;;;;;;;7.53;5.07;;;20.40;70.40;;;;;;5073174;28;20028;-77
2021/07/02 06:27:34;;;;;;;7.15;4.88;;;20.40;69.90;;;;;;5074441;28;20107;-76
2021/07/02 06:30:00;;;;;;;10.38;5.30;;;20.40;70.40;;;;;;5084209;28;20058;-75
2021/07/02 06:32:26;;;;;;;10.57;5.68;;;20.50;69.90;;;;;;5098098;28;20020;-75
2021/07/02 06:34:52;;;;;;;7.13;5.32;;;20.50;68.80;;;;;;5094622;28;20028;-76
2021/07/02 06:37:18;;;;;;;9.63;4.95;;;20.50;69.10;;;;;;5087104;28;20024;-75
2021/07/02 06:39:44;;;;;;;6.97;4.80;;;20.60;70.00;;;;;;5084260;28;20093;-75
2021/07/02 06:42:10;;;;;;;8.75;5.43;;;20.60;70.20;;;;;;5073057;28;20039;-77
2021/07/02 06:44:35;;;;;;;9.52;4.85;;;20.60;69.10;;;;;;5085219;28;20070;-75
2021/07/02 06:47:02;;;;;;;7.72;5.38;;;20.70;69.40;;;;;;5094093;28;20030;-75
2021/07/02 06:49:27;;;;;;;9.38;5.50;;;20.70;68.30;;;;;;5088910;28;20486;-75
2021/07/02 06:51:53;;;;;;;7.28;5.25;;;20.70;67.10;;;;;;5085688;28;20044;-76
2021/07/02 06:54:19;;;;;;;6.38;5.07;;;20.70;67.30;;;;;;5094193;28;20099;-75
2021/07/02 06:57:01;;;;;;;7.18;5.00;;;20.70;68.00;;;;;;5075403;28;20024;-76
2021/07/02 06:59:33;;;;;;;6.80;4.97;;;20.80;68.40;;;;;;5085236;28;20523;-74
2021/07/02 07:02:00;;;;;;;7.43;5.32;;;20.80;67.90;;;;;;5082071;28;20028;-75
2021/07/02 07:04:29;;;;;;;9.05;5.43;;;20.80;67.10;;;;;;5073807;28;20533;-75
2021/07/02 07:06:55;;;;;;;6.35;4.70;;;20.80;66.50;;;;;;5079579;28;20111;-75
2021/07/02 07:09:21;;;;;;;10.30;6.35;;;20.80;66.80;;;;;;5084670;28;20024;-75
2021/07/02 07:11:47;;;;;;;7.00;5.35;;;20.70;65.90;;;;;;5088381;28;20032;-74
2021/07/02 07:14:13;;;;;;;10.77;5.15;;;20.70;66.70;;;;;;5088047;28;20043;-75
2021/07/02 07:16:39;;;;;;;9.75;5.65;;;20.70;66.50;;;;;;5083778;28;20481;-74
2021/07/02 07:19:05;;;;;;;8.23;5.53;;;20.70;66.50;;;;;;5093484;28;20062;-72
2021/07/02 07:21:30;;;;;;;9.73;4.97;;;20.60;66.80;;;;;;5081872;28;20047;-72
2021/07/02 07:23:56;;;;;;;13.10;5.75;;;20.70;68.20;;;;;;5082370;28;20027;-75
2021/07/02 07:26:22;;;;;;;6.78;5.03;;;20.70;67.60;;;;;;5086330;28;20040;-74
2021/07/02 07:28:47;;;;;;;8.45;5.40;;;20.80;69.20;;;;;;5072064;28;20031;-74
2021/07/02 07:31:13;;;;;;;9.70;5.18;;;20.90;67.80;;;;;;5083959;28;20503;-72
2021/07/02 07:33:43;;;;;;;7.65;5.22;;;20.90;67.70;;;;;;5090570;28;20023;-74
2021/07/02 07:36:14;;;;;;;9.50;5.55;;;21.00;67.90;;;;;;5072802;28;20047;-73
2021/07/02 07:38:40;;;;;;;6.93;4.65;;;21.10;68.30;;;;;;5072586;28;20020;-71
2021/07/02 07:41:06;;;;;;;5.93;5.03;;;21.20;68.00;;;;;;5072429;28;20078;-74
2021/07/02 07:43:31;;;;;;;9.50;5.32;;;21.30;68.80;;;;;;5072925;28;20082;-72
2021/07/02 07:45:57;;;;;;;8.80;5.45;;;21.40;67.60;;;;;;5073479;28;20485;-72
2021/07/02 07:48:23;;;;;;;7.72;5.20;;;21.50;67.40;;;;;;5093207;28;20077;-72
2021/07/02 07:50:51;;;;;;;6.20;4.85;;;21.60;67.30;;;;;;5092942;28;20146;-74
2021/07/02 07:53:17;;;;;;;6.95;4.80;;;21.80;68.90;;;;;;5091818;28;20024;-71
2021/07/02 07:55:44;;;;;;;7.50;5.20;;;21.80;68.20;;;;;;5093157;28;20012;-72
2021/07/02 07:58:09;;;;;;;10.20;5.15;;;22.00;67.90;;;;;;5093246;28;20385;-70
2021/07/02 08:00:35;;;;;;;5.95;4.20;;;22.10;65.90;;;;;;5092537;28;20024;-72
2021/07/02 08:03:01;;;;;;;7.50;4.70;;;22.30;67.20;;;;;;5093157;28;20024;-71
2021/07/02 08:05:28;;;;;;;5.75;4.80;;;22.40;66.50;;;;;;5091678;28;20024;-71
2021/07/02 08:07:54;;;;;;;10.65;5.47;;;22.40;64.30;;;;;;5092926;28;20095;-71
2021/07/02 08:10:21;;;;;;;5.90;4.97;;;22.50;65.50;;;;;;5093053;28;20031;-71
2021/07/02 08:12:47;;;;;;;9.70;4.50;;;22.50;63.80;;;;;;5092521;28;20027;-71
2021/07/02 08:15:16;;;;;;;6.55;4.72;;;22.60;65.30;;;;;;5084635;28;20029;-70
2021/07/02 08:17:42;;;;;;;7.82;4.65;;;22.70;64.10;;;;;;5072718;28;20013;-70
2021/07/02 08:20:09;;;;;;;7.70;4.80;;;22.80;65.10;;;;;;5072589;28;20025;-72
2021/07/02 08:22:36;;;;;;;7.05;4.47;;;22.70;63.60;;;;;;5072678;28;20056;-71
2021/07/02 08:25:03;;;;;;;8.65;4.95;;;22.80;64.30;;;;;;5072528;28;20508;-71
2021/07/02 08:27:33;;;;;;;6.35;4.30;;;22.80;64.20;;;;;;5072596;28;20020;-70
2021/07/02 08:29:59;;;;;;;5.78;4.38;;;22.80;63.60;;;;;;5072646;28;20048;-71
2021/07/02 08:32:24;;;;;;;7.63;4.95;;;22.80;64.50;;;;;;5072533;28;20427;-72
2021/07/02 08:34:50;;;;;;;6.47;4.80;;;22.80;63.90;;;;;;5072454;28;20101;-73
2021/07/02 08:37:16;;;;;;;7.15;5.00;;;22.70;63.00;;;;;;5072493;28;20104;-71
2021/07/02 08:39:47;;;;;;;11.35;5.55;;;22.70;63.40;;;;;;5071120;28;20478;-72
2021/07/02 08:42:13;;;;;;;8.77;5.20;;;22.70;63.20;;;;;;5072413;28;20031;-73
2021/07/02 08:44:38;;;;;;;4.95;4.18;;;22.70;62.80;;;;;;5072614;28;20020;-72
2021/07/02 08:47:06;;;;;;;6.30;4.80;;;22.70;64.60;;;;;;5072381;28;20028;-71
2021/07/02 08:49:33;;;;;;;7.95;5.00;;;22.70;63.80;;;;;;5072317;28;20070;-72
2021/07/02 08:51:59;;;;;;;6.65;5.10;;;22.70;65.00;;;;;;5071941;28;20052;-71
2021/07/02 08:54:25;;;;;;;5.32;4.65;;;22.70;63.30;;;;;;5072342;28;20029;-71
2021/07/02 08:56:57;;;;;;;8.15;5.72;;;22.70;64.20;;;;;;5072361;28;20067;-71
2021/07/02 08:59:24;;;;;;;8.45;5.38;;;22.70;62.80;;;;;;5072434;28;20052;-71
2021/07/02 09:01:51;;;;;;;6.32;5.07;;;22.70;64.30;;;;;;5071997;28;20020;-72
2021/07/02 09:04:22;;;;;;;8.00;5.00;;;22.70;65.00;;;;;;5083792;28;20027;-71
2021/07/02 09:07:11;;;;;;;9.68;5.18;;;22.80;63.30;;;;;;5089900;28;20119;-71
2021/07/02 09:09:46;;;;;;;8.90;4.90;;;22.80;63.90;;;;;;5087467;28;20056;-72
2021/07/02 09:12:13;;;;;;;13.07;5.45;;;22.80;61.60;;;;;;5073568;28;20028;-71
2021/07/02 09:14:40;;;;;;;8.65;4.70;;;22.90;61.90;;;;;;5076209;28;20021;-71
2021/07/02 09:17:12;;;;;;;7.20;4.57;;;22.90;62.90;;;;;;5075942;28;20024;-71
2021/07/02 09:19:38;;;;;;;5.72;4.53;;;22.90;62.90;;;;;;5075857;28;20025;-72
2021/07/02 09:22:15;;;;;;;9.43;5.28;;;22.90;63.40;;;;;;5074347;28;20032;-71
2021/07/02 09:24:45;;;;;;;11.38;5.35;;;22.80;62.30;;;;;;5075754;28;20028;-71
2021/07/02 09:27:27;;;;;;;5.95;4.57;;;22.80;61.60;;;;;;5092397;28;20024;-71
2021/07/02 09:30:16;;;;;;;7.40;4.60;;;22.80;63.10;;;;;;5095804;28;20024;-71
2021/07/02 09:32:44;;;;;;;6.68;4.50;;;22.80;62.90;;;;;;5095709;28;20031;-71
2021/07/02 09:35:12;;;;;;;6.70;4.20;;;22.80;63.50;;;;;;5083188;28;20024;-72
2021/07/02 09:37:57;;;;;;;5.32;4.28;;;22.80;63.50;;;;;;5074680;28;20025;-71
2021/07/02 09:40:29;;;;;;;7.70;4.35;;;22.80;63.20;;;;;;5074716;28;20074;-72
2021/07/02 09:43:06;;;;;;;5.47;4.47;;;22.80;62.20;;;;;;5074992;28;20052;-72
2021/07/02 09:45:45;;;;;;;11.88;5.25;;;22.80;63.90;;;;;;5075461;28;20490;-72
2021/07/02 09:48:12;;;;;;;5.10;4.10;;;22.80;62.30;;;;;;5075044;28;20021;-71
2021/07/02 09:50:52;;;;;;;6.00;4.13;;;22.80;63.20;;;;;;5074868;28;20051;-71
2021/07/02 09:53:21;;;;;;;9.55;4.70;;;22.80;63.20;;;;;;5074833;28;20435;-71
2021/07/02 09:55:54;;;;;;;5.70;3.83;;;22.80;63.20;;;;;;5074946;28;20482;-72
2021/07/02 09:58:36;;;;;;;5.38;3.88;;;22.80;63.30;;;;;;5075060;28;20020;-72
2021/07/02 10:01:03;;;;;;;6.90;4.45;;;22.80;62.90;;;;;;5074844;28;20025;-71
2021/07/02 10:03:37;;;;;;;5.38;3.95;;;22.90;62.50;;;;;;5074903;28;20474;-71
2021/07/02 10:06:06;;;;;;;5.80;3.95;;;22.90;62.20;;;;;;5074973;28;20035;-72
2021/07/02 10:08:37;;;;;;;7.18;4.40;;;22.90;64.10;;;;;;5081322;28;20031;-71
2021/07/02 10:11:06;;;;;;;4.70;3.55;;;22.90;63.60;;;;;;5095323;28;20026;-71
2021/07/02 10:13:34;;;;;;;10.20;4.18;;;23.00;63.20;;;;;;5093480;28;20024;-72
2021/07/02 10:16:04;;;;;;;7.13;4.85;;;23.00;64.40;;;;;;5082181;28;20021;-73
2021/07/02 10:18:32;;;;;;;6.97;4.15;;;23.00;61.80;;;;;;5074551;28;20031;-72
2021/07/02 10:21:02;;;;;;;5.30;4.20;;;23.00;64.00;;;;;;5074607;28;20075;-71
2021/07/02 10:23:35;;;;;;;7.38;4.45;;;23.10;63.00;;;;;;5073768;28;20031;-71
2021/07/02 10:26:03;;;;;;;6.75;4.38;;;23.10;63.70;;;;;;5074540;28;20020;-72
2021/07/02 10:28:30;;;;;;;3.65;3.13;;;23.20;62.60;;;;;;5074348;28;20020;-72
2021/07/02 10:30:57;;;;;;;6.88;3.78;;;23.20;64.50;;;;;;5074375;28;20027;-72
2021/07/02 10:33:25;;;;;;;9.27;4.40;;;23.30;62.50;;;;;;5074114;28;20025;-72
2021/07/02 10:35:59;;;;;;;5.43;3.88;;;23.30;62.70;;;;;;5074247;28;20378;-71
2021/07/02 10:38:41;;;;;;;5.28;4.38;;;23.30;63.20;;;;;;5073833;28;20044;-72
2021/07/02 10:41:16;;;;;;;5.13;3.95;;;23.40;62.50;;;;;;5072895;28;20067;-71
2021/07/02 10:44:11;;;;;;;7.65;4.35;;;23.40;63.20;;;;;;5074010;28;20029;-71
2021/07/02 10:46:47;;;;;;;8.05;4.78;;;23.40;63.30;;;;;;5072959;28;20155;-70
2021/07/02 10:49:13;;;;;;;7.00;4.50;;;23.60;64.00;;;;;;5073773;28;20055;-72
2021/07/02 10:51:44;;;;;;;6.07;4.20;;;23.60;64.70;;;;;;5073625;28;20052;-71
2021/07/02 10:54:16;;;;;;;5.85;4.13;;;23.70;63.30;;;;;;5074067;28;20020;-71
2021/07/02 10:56:59;;;;;;;6.20;4.45;;;23.90;63.10;;;;;;5074416;28;20493;-71
2021/07/02 10:59:37;;;;;;;8.82;4.80;;;24.00;63.80;;;;;;5073108;28;20443;-74
2021/07/02 11:02:09;;;;;;;5.53;4.30;;;24.10;63.10;;;;;;5074760;28;20096;-71
2021/07/02 11:04:37;;;;;;;5.82;4.53;;;24.20;62.10;;;;;;5074429;28;20051;-72
2021/07/02 11:07:26;;;;;;;5.13;4.03;;;24.30;61.20;;;;;;5080033;28;20076;-70
2021/07/02 11:09:52;;;;;;;4.63;3.97;;;24.30;61.90;;;;;;5092529;28;20071;-72
2021/07/02 11:12:23;;;;;;;5.47;4.07;;;24.30;61.90;;;;;;5092364;28;20048;-71
2021/07/02 11:14:55;;;;;;;8.95;5.20;;;24.30;61.80;;;;;;5091418;28;20024;-71
2021/07/02 11:17:26;;;;;;;5.25;4.32;;;24.20;59.60;;;;;;5073584;28;20082;-72
2021/07/02 11:20:07;;;;;;;5.43;4.10;;;24.10;61.00;;;;;;5072045;28;20021;-71
2021/07/02 11:22:58;;;;;;;7.00;4.68;;;24.10;62.10;;;;;;5072067;28;20390;-71
2021/07/02 11:25:43;;;;;;;6.63;4.28;;;24.00;60.10;;;;;;5073344;28;20035;-72
2021/07/02 11:28:12;;;;;;;8.15;4.15;;;24.00;60.30;;;;;;5071938;28;20037;-72
2021/07/02 11:30:43;;;;;;;5.78;4.57;;;24.00;61.30;;;;;;5072891;28;20462;-73
2021/07/02 11:33:09;;;;;;;7.00;4.80;;;24.00;60.10;;;;;;5072773;28;20382;-72
2021/07/02 11:35:43;;;;;;;5.43;4.30;;;24.10;61.60;;;;;;5076101;28;20024;-72
2021/07/02 11:38:13;;;;;;;;;;;24.10;59.10;;;;;;5073018;28;20031;-71
2021/07/02 11:40:54;;;;;;;7.07;4.70;;;24.10;61.00;;;;;;5071107;28;19904;-71
2021/07/02 11:43:33;;;;;;;4.10;3.70;;;24.10;61.00;;;;;;5071161;28;20111;-73
2021/07/02 11:46:18;;;;;;;6.00;4.60;;;24.20;61.40;;;;;;5073160;28;20030;-72
2021/07/02 11:48:52;;;;;;;5.80;4.40;;;24.20;61.10;;;;;;5072783;28;20024;-71
2021/07/02 11:51:22;;;;;;;4.57;3.85;;;24.20;60.80;;;;;;5072609;28;20053;-72
2021/07/02 11:53:50;;;;;;;6.53;4.60;;;24.20;63.40;;;;;;5072839;28;20029;-72
2021/07/02 11:56:22;;;;;;;5.25;3.83;;;24.30;63.40;;;;;;5072783;28;20033;-72
2021/07/02 11:58:49;;;;;;;5.15;3.95;;;24.40;63.10;;;;;;5072873;28;20025;-72
2021/07/02 12:01:21;;;;;;;6.78;4.88;;;24.50;62.20;;;;;;5072690;28;20032;-73
2021/07/02 12:03:49;;;;;;;5.05;3.92;;;24.60;60.00;;;;;;5072713;28;20035;-72
2021/07/02 12:06:26;;;;;;;7.65;4.20;;;24.60;61.00;;;;;;5082551;28;20028;-71
2021/07/02 12:09:14;;;;;;;6.07;4.00;;;24.70;61.10;;;;;;5093006;28;20477;-72
2021/07/02 12:11:45;;;;;;;5.95;3.78;;;24.80;60.80;;;;;;5079734;28;20086;-72
2021/07/02 12:14:14;;;;;;;5.72;4.18;;;24.90;60.60;;;;;;5092899;28;20095;-72
2021/07/02 12:16:45;;;;;;;4.38;3.67;;;25.00;61.00;;;;;;5091249;28;20058;-71
2021/07/02 12:19:16;;;;;;;6.22;4.45;;;25.10;60.30;;;;;;5092724;28;20028;-72
2021/07/02 12:22:00;;;;;;;5.50;4.18;;;25.10;59.70;;;;;;5092656;28;20021;-73
2021/07/02 12:24:28;;;;;;;5.90;4.45;;;25.20;59.50;;;;;;5092569;28;20446;-72
2021/07/02 12:27:00;;;;;;;6.32;4.03;;;25.30;59.40;;;;;;5091736;28;20051;-72
2021/07/02 12:29:28;;;;;;;6.38;4.50;;;25.30;59.70;;;;;;5092765;28;20020;-73
2021/07/02 12:31:59;;;;;;;5.45;4.03;;;25.30;57.70;;;;;;5091304;28;20031;-72
2021/07/02 12:34:26;;;;;;;7.20;5.35;;;25.20;59.50;;;;;;5091429;28;20024;-72
2021/07/02 12:36:56;;;;;;;6.03;4.22;;;25.20;56.60;;;;;;5092942;28;20027;-73
2021/07/02 12:39:33;;;;;;;5.35;4.45;;;25.10;56.90;;;;;;5092615;28;20354;-71
2021/07/02 12:42:02;;;;;;;4.75;3.95;;;25.00;58.80;;;;;;5091389;28;20051;-72
2021/07/02 12:44:30;;;;;;;6.20;4.10;;;25.00;58.90;;;;;;5092479;28;20024;-72
2021/07/02 12:46:56;;;;;;;5.63;4.18;;;24.90;58.70;;;;;;5075073;28;20086;-72
2021/07/02 12:49:43;;;;;;;7.80;4.15;;;24.80;58.30;;;;;;5075954;28;20102;-71
2021/07/02 12:54:57;;;;;;;6.47;4.00;;;24.70;59.40;;;;;;5076611;28;20115;-71